Terminal Aerodrome Forecast
Issued by NWS

Home | Current Version | Previous Version | Text Only | Print | Product List | Glossary On
Versions: 1 2 3 4 5 6 7 8 9 10 11 12 13 14 15 16
489
FTUS42 KTBW 041744
TAFRSW
TAF
KRSW 041744Z 0418/0518 VRB06KT 6SM -RA VCTS SCT008CB BKN025 OVC060
      TEMPO 0418/0420 2SM +TSRA BKN008CB
     FM042100 24009KT P6SM VCSH SCT010 BKN025 OVC060
     FM050000 27008KT P6SM SCT015 BKN025 OVC060
     FM050300 30010KT P6SM SCT025 BKN060
     FM050600 32008KT P6SM FEW025 SCT060
     FM051400 34012KT P6SM SCT060=

USA.gov is the U.S. government's official web portal to all federal, state and local government web resources and services.